createdAt,value
2017-05-31T00:00:58.489Z,16.92
2017-05-31T00:03:25.753Z,15.42
2017-05-31T00:05:52.892Z,15.00
2017-05-31T00:08:20.032Z,13.72
2017-05-31T00:10:47.480Z,14.00
2017-05-31T00:13:14.629Z,15.96
2017-05-31T00:15:41.744Z,15.70
2017-05-31T00:18:08.929Z,14.90
2017-05-31T00:20:36.048Z,15.26
2017-05-31T00:23:03.187Z,15.18
2017-05-31T00:25:30.357Z,14.54
2017-05-31T00:27:57.499Z,14.90
2017-05-31T00:30:24.638Z,14.04
2017-05-31T00:32:52.422Z,14.92
2017-05-31T00:35:19.557Z,14.98
2017-05-31T00:37:46.696Z,15.30
2017-05-31T00:40:13.880Z,14.74
2017-05-31T00:42:41.241Z,14.76
2017-05-31T00:45:08.408Z,15.78
2017-05-31T00:47:35.536Z,16.24
2017-05-31T00:50:01.981Z,14.86
2017-05-31T00:52:29.137Z,16.24
2017-05-31T00:54:56.286Z,14.40
2017-05-31T00:57:23.462Z,15.36
2017-05-31T00:59:50.613Z,16.06
2017-05-31T01:02:17.752Z,14.58
2017-05-31T01:04:44.923Z,16.18
2017-05-31T01:07:12.069Z,15.12
2017-05-31T01:09:39.345Z,15.32
2017-05-31T01:12:06.485Z,16.68
2017-05-31T01:14:33.637Z,16.00
2017-05-31T01:17:01.041Z,16.10
2017-05-31T01:19:28.201Z,15.44
2017-05-31T01:21:55.394Z,15.52
2017-05-31T01:24:22.569Z,16.40
2017-05-31T01:26:49.836Z,16.26
2017-05-31T01:29:16.977Z,16.52
2017-05-31T01:31:44.188Z,16.56
2017-05-31T01:34:11.357Z,14.90
2017-05-31T01:36:38.502Z,16.02
2017-05-31T01:39:05.661Z,15.98
2017-05-31T01:41:32.856Z,15.66
2017-05-31T01:44:00.041Z,16.70
2017-05-31T01:46:27.206Z,15.88
2017-05-31T01:48:54.473Z,15.10
2017-05-31T01:51:21.672Z,14.92
2017-05-31T01:53:48.805Z,15.62
2017-05-31T01:56:15.965Z,15.12
2017-05-31T01:58:43.179Z,14.52
2017-05-31T02:01:10.324Z,14.92
2017-05-31T02:03:37.511Z,15.06
2017-05-31T02:06:04.701Z,13.10
2017-05-31T02:08:31.829Z,14.32
2017-05-31T02:10:59.004Z,13.60
2017-05-31T02:13:26.153Z,14.50
2017-05-31T02:15:53.292Z,14.84
2017-05-31T02:18:19.712Z,15.10
2017-05-31T02:20:46.851Z,13.94
2017-05-31T02:23:18.329Z,14.24
2017-05-31T02:25:41.209Z,14.52
2017-05-31T02:28:08.391Z,15.04
2017-05-31T02:30:35.588Z,13.04
2017-05-31T02:33:02.737Z,15.58
2017-05-31T02:35:29.881Z,15.24
2017-05-31T02:37:57.139Z,14.04
2017-05-31T02:40:24.296Z,14.40
2017-05-31T02:42:51.436Z,13.76
2017-05-31T02:45:18.635Z,14.64
2017-05-31T02:47:45.760Z,13.26
2017-05-31T02:50:13.041Z,14.68
2017-05-31T02:52:40.168Z,13.30
2017-05-31T02:55:07.740Z,14.08
2017-05-31T02:57:35.686Z,13.68
2017-05-31T03:00:02.828Z,13.20
2017-05-31T03:02:30.017Z,15.80
2017-05-31T03:04:57.152Z,13.32
2017-05-31T03:07:24.290Z,14.78
2017-05-31T03:09:51.458Z,14.98
2017-05-31T03:12:18.645Z,15.30
2017-05-31T03:14:45.778Z,13.50
2017-05-31T03:17:12.921Z,12.68
2017-05-31T03:19:40.077Z,14.02
2017-05-31T03:22:07.206Z,14.32
2017-05-31T03:24:34.325Z,13.86
2017-05-31T03:27:01.505Z,14.78
2017-05-31T03:29:28.664Z,14.76
2017-05-31T03:31:55.822Z,13.88
2017-05-31T03:34:22.985Z,14.06
2017-05-31T03:36:50.114Z,12.68
2017-05-31T03:39:17.264Z,13.42
2017-05-31T03:41:44.436Z,14.08
2017-05-31T03:44:11.579Z,12.22
2017-05-31T03:46:38.719Z,12.84
2017-05-31T03:49:05.933Z,14.70
2017-05-31T03:51:47.988Z,13.70
2017-05-31T03:54:15.175Z,16.82
2017-05-31T03:56:42.380Z,14.70
2017-05-31T03:59:09.540Z,14.82
2017-05-31T04:01:36.722Z,15.46
2017-05-31T04:04:03.889Z,13.80
2017-05-31T04:06:31.057Z,15.98
2017-05-31T04:08:58.200Z,15.92
2017-05-31T04:11:25.381Z,15.72
2017-05-31T04:13:52.505Z,15.60
2017-05-31T04:16:19.647Z,15.14
2017-05-31T04:18:46.817Z,15.58
2017-05-31T04:21:13.977Z,14.36
2017-05-31T04:23:41.169Z,14.92
2017-05-31T04:26:08.317Z,13.98
2017-05-31T04:28:35.472Z,14.78
2017-05-31T04:31:02.629Z,15.18
2017-05-31T04:33:29.288Z,14.10
2017-05-31T04:35:57.614Z,14.60
2017-05-31T04:38:24.945Z,14.80
2017-05-31T04:40:52.145Z,14.56
2017-05-31T04:43:19.659Z,13.86
2017-05-31T04:45:46.848Z,13.54
2017-05-31T04:48:14.000Z,16.02
2017-05-31T04:50:41.284Z,15.84
2017-05-31T04:53:08.544Z,16.42
2017-05-31T04:55:35.676Z,15.74
2017-05-31T04:58:02.845Z,16.72
2017-05-31T05:00:30.113Z,17.26
2017-05-31T05:02:57.265Z,17.74
2017-05-31T05:05:24.416Z,18.30
2017-05-31T05:07:51.617Z,19.40
2017-05-31T05:10:18.772Z,19.58
2017-05-31T05:12:45.934Z,17.56
2017-05-31T05:15:13.110Z,18.18
2017-05-31T05:17:40.268Z,20.44
2017-05-31T05:20:07.425Z,18.50
2017-05-31T05:22:34.719Z,18.38
2017-05-31T05:25:01.869Z,18.82
2017-05-31T05:27:29.020Z,18.22
2017-05-31T05:29:56.182Z,18.26
2017-05-31T05:32:23.335Z,17.70
2017-05-31T05:34:50.538Z,17.94
2017-05-31T05:37:17.913Z,18.30
2017-05-31T05:39:45.074Z,18.94
2017-05-31T05:42:12.216Z,19.70
2017-05-31T05:44:39.409Z,17.64
2017-05-31T05:47:06.586Z,19.12
2017-05-31T05:49:33.755Z,18.84
2017-05-31T05:52:00.905Z,18.12
2017-05-31T05:54:28.078Z,18.96
2017-05-31T05:56:55.230Z,17.90
2017-05-31T05:59:22.383Z,17.26
2017-05-31T06:01:49.692Z,16.74
2017-05-31T06:04:16.817Z,16.86
2017-05-31T06:06:43.948Z,18.72
2017-05-31T06:09:11.126Z,17.44
2017-05-31T06:11:38.279Z,17.68
2017-05-31T06:14:05.422Z,17.06
2017-05-31T06:16:32.630Z,17.54
2017-05-31T06:18:59.783Z,16.68
2017-05-31T06:21:26.933Z,18.24
2017-05-31T06:24:09.038Z,16.10
2017-05-31T06:26:36.185Z,15.52
2017-05-31T06:29:03.357Z,16.00
2017-05-31T06:31:30.489Z,18.22
2017-05-31T06:33:57.621Z,15.54
2017-05-31T06:36:24.109Z,15.32
2017-05-31T06:38:51.274Z,15.64
2017-05-31T06:41:18.409Z,16.28
2017-05-31T06:43:45.576Z,16.00
2017-05-31T06:46:12.720Z,16.38
2017-05-31T06:48:39.860Z,15.78
2017-05-31T06:51:07.150Z,14.50
2017-05-31T06:53:34.268Z,15.54
2017-05-31T06:56:01.421Z,15.10
2017-05-31T06:58:28.624Z,14.92
2017-05-31T07:00:55.796Z,14.80
2017-05-31T07:03:22.945Z,15.00
2017-05-31T07:05:50.076Z,14.72
2017-05-31T07:08:17.538Z,14.64
2017-05-31T07:10:45.015Z,15.04
2017-05-31T07:13:12.258Z,13.72
2017-05-31T07:15:39.681Z,14.34
2017-05-31T07:18:06.915Z,14.34
2017-05-31T07:20:34.100Z,13.00
2017-05-31T07:23:01.417Z,12.64
2017-05-31T07:25:28.650Z,12.50
2017-05-31T07:27:55.985Z,11.66
2017-05-31T07:30:23.522Z,11.18
2017-05-31T07:32:50.808Z,11.06
2017-05-31T07:35:18.023Z,11.08
2017-05-31T07:37:45.410Z,11.52
2017-05-31T07:40:12.841Z,11.00
2017-05-31T07:42:40.495Z,8.28
2017-05-31T07:45:07.825Z,9.28
2017-05-31T07:47:34.998Z,8.30
2017-05-31T07:50:02.201Z,8.32
2017-05-31T07:52:29.353Z,7.66
2017-05-31T07:54:56.488Z,6.72
2017-05-31T07:57:23.748Z,6.46
2017-05-31T07:59:50.898Z,6.72
2017-05-31T08:02:18.028Z,6.24
2017-05-31T08:04:45.205Z,5.58
2017-05-31T08:07:12.341Z,5.82
2017-05-31T08:09:39.480Z,6.58
2017-05-31T08:12:06.653Z,5.98
2017-05-31T08:14:33.832Z,6.78
2017-05-31T08:17:00.984Z,6.04
2017-05-31T08:19:28.129Z,6.28
2017-05-31T08:21:55.308Z,6.44
2017-05-31T08:24:22.449Z,7.26
2017-05-31T08:26:49.621Z,5.84
2017-05-31T08:29:16.786Z,5.18
2017-05-31T08:31:43.924Z,5.36
2017-05-31T08:34:11.073Z,4.12
2017-05-31T08:36:38.235Z,5.16
2017-05-31T08:39:05.370Z,5.28
2017-05-31T08:41:33.035Z,4.80
2017-05-31T08:44:00.725Z,5.82
2017-05-31T08:46:28.040Z,4.92
2017-05-31T08:48:55.251Z,5.40
2017-05-31T08:51:22.486Z,5.34
2017-05-31T08:53:49.688Z,5.28
2017-05-31T08:56:16.913Z,4.86
2017-05-31T08:58:44.222Z,4.54
2017-05-31T09:01:11.442Z,5.02
2017-05-31T09:03:38.638Z,5.22
2017-05-31T09:06:05.874Z,3.98
2017-05-31T09:08:33.210Z,4.20
2017-05-31T09:11:00.429Z,4.46
2017-05-31T09:13:27.601Z,3.72
2017-05-31T09:15:54.797Z,3.38
2017-05-31T09:18:22.953Z,3.86
2017-05-31T09:20:50.107Z,3.78
2017-05-31T09:23:17.296Z,4.02
2017-05-31T09:25:44.449Z,3.80
2017-05-31T09:28:11.598Z,3.66
2017-05-31T09:30:38.801Z,4.08
2017-05-31T09:33:06.000Z,4.28
2017-05-31T09:35:33.172Z,4.30
2017-05-31T09:38:00.357Z,4.24
2017-05-31T09:40:27.532Z,4.58
2017-05-31T09:42:54.684Z,3.60
2017-05-31T09:45:21.864Z,4.10
2017-05-31T09:47:49.041Z,4.40
2017-05-31T09:50:15.434Z,3.54
2017-05-31T09:52:42.597Z,4.86
2017-05-31T09:55:09.867Z,5.08
2017-05-31T09:57:37.037Z,4.90
2017-05-31T10:00:04.193Z,5.68
2017-05-31T10:02:31.712Z,4.92
2017-05-31T10:04:59.136Z,5.40
2017-05-31T10:07:26.381Z,5.56
2017-05-31T10:09:53.620Z,5.80
2017-05-31T10:12:20.809Z,5.86
2017-05-31T10:14:54.856Z,5.30
2017-05-31T10:17:22.029Z,5.20
2017-05-31T10:19:49.175Z,5.72
2017-05-31T10:22:16.360Z,5.02
2017-05-31T10:24:43.538Z,5.72
2017-05-31T10:27:10.692Z,5.54
2017-05-31T10:29:37.876Z,5.30
2017-05-31T10:32:05.014Z,5.46
2017-05-31T10:34:32.188Z,5.30
2017-05-31T10:36:59.332Z,5.56
2017-05-31T10:39:26.464Z,4.98
2017-05-31T10:41:53.648Z,5.28
2017-05-31T10:44:20.784Z,5.24
2017-05-31T10:46:47.938Z,4.64
2017-05-31T10:49:15.214Z,5.06
2017-05-31T10:51:42.352Z,4.50
2017-05-31T10:54:09.480Z,5.18
2017-05-31T10:56:36.649Z,4.70
2017-05-31T10:59:03.788Z,4.80
2017-05-31T11:01:30.964Z,4.60
2017-05-31T11:03:58.108Z,4.28
2017-05-31T11:06:25.296Z,5.18
2017-05-31T11:08:52.478Z,4.06
2017-05-31T11:11:19.680Z,4.26
2017-05-31T11:13:46.852Z,4.74
2017-05-31T11:16:13.993Z,4.70
2017-05-31T11:18:41.145Z,4.98
2017-05-31T11:21:08.337Z,4.90
2017-05-31T11:23:35.528Z,4.42
2017-05-31T11:26:02.704Z,5.32
2017-05-31T11:28:29.841Z,4.92
2017-05-31T11:30:56.976Z,4.52
2017-05-31T11:33:24.145Z,5.10
2017-05-31T11:35:51.306Z,5.18
2017-05-31T11:38:18.423Z,4.48
2017-05-31T11:40:45.704Z,4.04
2017-05-31T11:43:12.849Z,4.30
2017-05-31T11:45:39.992Z,4.70
2017-05-31T11:48:07.172Z,5.12
2017-05-31T11:50:34.321Z,4.52
2017-05-31T11:53:02.324Z,4.90
2017-05-31T11:55:29.497Z,4.90
2017-05-31T11:57:56.624Z,4.90
2017-05-31T12:00:23.794Z,4.30
2017-05-31T12:02:50.945Z,4.90
2017-05-31T12:05:18.110Z,4.98
2017-05-31T12:07:45.280Z,5.20
2017-05-31T12:10:12.409Z,5.02
2017-05-31T12:12:39.592Z,4.62
2017-05-31T12:15:06.776Z,4.30
2017-05-31T12:17:33.940Z,4.16
2017-05-31T12:20:01.062Z,4.20
2017-05-31T12:22:28.321Z,3.98
2017-05-31T12:24:55.457Z,4.24
2017-05-31T12:27:22.601Z,3.44
2017-05-31T12:29:49.042Z,4.06
2017-05-31T12:32:16.182Z,4.50
2017-05-31T12:34:43.456Z,3.76
2017-05-31T12:37:10.696Z,4.48
2017-05-31T12:39:37.844Z,4.26
2017-05-31T12:42:04.969Z,4.62
2017-05-31T12:44:32.129Z,4.44
2017-05-31T12:46:59.265Z,4.20
2017-05-31T12:49:26.413Z,4.28
2017-05-31T12:51:53.585Z,4.96
2017-05-31T12:54:20.769Z,5.30
2017-05-31T12:56:47.959Z,5.96
2017-05-31T12:59:15.805Z,5.52
2017-05-31T13:01:42.956Z,5.46
2017-05-31T13:04:10.091Z,6.64
2017-05-31T13:06:37.353Z,6.10
2017-05-31T13:09:04.573Z,6.44
2017-05-31T13:11:31.729Z,6.04
2017-05-31T13:13:58.944Z,6.54
2017-05-31T13:16:27.029Z,6.64
2017-05-31T13:18:54.171Z,6.44
2017-05-31T13:21:21.353Z,6.54
2017-05-31T13:23:48.544Z,6.72
2017-05-31T13:26:15.689Z,7.08
2017-05-31T13:28:42.910Z,6.68
2017-05-31T13:31:10.196Z,7.18
2017-05-31T13:33:37.357Z,7.28
2017-05-31T13:36:04.520Z,6.76
2017-05-31T13:38:31.704Z,6.60
2017-05-31T13:40:58.868Z,8.10
2017-05-31T13:43:26.029Z,6.96
2017-05-31T13:45:53.216Z,7.22
2017-05-31T13:48:19.752Z,7.68
2017-05-31T13:50:46.884Z,7.88
2017-05-31T13:53:14.035Z,7.18
2017-05-31T13:55:41.213Z,8.14
2017-05-31T13:58:08.385Z,9.12
2017-05-31T14:00:35.657Z,9.24
2017-05-31T14:03:02.781Z,9.78
2017-05-31T14:05:29.949Z,9.80
2017-05-31T14:07:57.132Z,8.54
2017-05-31T14:10:24.285Z,9.00
2017-05-31T14:12:51.420Z,9.42
2017-05-31T14:15:18.602Z,9.60
2017-05-31T14:17:45.753Z,8.14
2017-05-31T14:20:12.902Z,8.82
2017-05-31T14:22:40.092Z,11.04
2017-05-31T14:25:07.256Z,11.24
2017-05-31T14:27:34.413Z,11.76
2017-05-31T14:30:01.656Z,11.20
2017-05-31T14:32:28.797Z,9.98
2017-05-31T14:34:55.940Z,9.84
2017-05-31T14:37:23.129Z,10.56
2017-05-31T14:39:50.301Z,8.88
2017-05-31T14:42:17.446Z,11.40
2017-05-31T14:44:45.312Z,10.14
2017-05-31T14:47:13.169Z,11.00
2017-05-31T14:49:40.300Z,10.92
2017-05-31T14:52:07.444Z,11.68
2017-05-31T14:54:34.621Z,10.18
2017-05-31T14:57:01.759Z,11.14
2017-05-31T14:59:28.901Z,11.06
2017-05-31T15:01:56.097Z,11.16
2017-05-31T15:04:23.249Z,10.82
2017-05-31T15:06:50.396Z,12.00
2017-05-31T15:09:17.592Z,14.60
2017-05-31T15:11:44.760Z,11.22
2017-05-31T15:14:11.944Z,9.94
2017-05-31T15:16:39.097Z,10.96
2017-05-31T15:19:06.433Z,9.60
2017-05-31T15:21:33.710Z,9.50
2017-05-31T15:24:00.832Z,7.26
2017-05-31T15:26:28.315Z,8.06
2017-05-31T15:28:55.455Z,7.60
2017-05-31T15:31:22.661Z,8.66
2017-05-31T15:33:49.883Z,8.30
2017-05-31T15:36:17.144Z,7.74
2017-05-31T15:38:44.321Z,8.24
2017-05-31T15:41:11.505Z,7.70
2017-05-31T15:43:38.933Z,7.08
2017-05-31T15:46:06.244Z,7.48
2017-05-31T15:48:33.413Z,7.36
2017-05-31T15:51:00.805Z,7.88
2017-05-31T15:53:28.089Z,7.98
2017-05-31T15:55:55.241Z,8.22
2017-05-31T15:58:22.441Z,7.70
2017-05-31T16:00:49.621Z,8.00
2017-05-31T16:03:16.825Z,8.80
2017-05-31T16:05:44.257Z,8.32
2017-05-31T16:08:11.445Z,8.16
2017-05-31T16:10:38.593Z,7.98
2017-05-31T16:13:05.784Z,7.86
2017-05-31T16:15:32.932Z,8.50
2017-05-31T16:18:00.081Z,8.82
2017-05-31T16:20:27.440Z,8.30
2017-05-31T16:22:54.643Z,8.42
2017-05-31T16:25:21.787Z,7.94
2017-05-31T16:27:49.045Z,9.48
2017-05-31T16:30:16.206Z,8.70
2017-05-31T16:32:43.685Z,9.44
2017-05-31T16:35:10.937Z,8.30
2017-05-31T16:37:38.120Z,8.78
2017-05-31T16:40:06.303Z,9.30
2017-05-31T16:42:33.517Z,8.30
2017-05-31T16:45:00.659Z,10.54
2017-05-31T16:47:27.819Z,9.46
2017-05-31T16:49:54.989Z,9.78
2017-05-31T16:52:22.141Z,10.06
2017-05-31T16:54:49.625Z,10.54
2017-05-31T16:57:16.808Z,10.86
2017-05-31T16:59:43.970Z,9.52
2017-05-31T17:02:11.152Z,9.80
2017-05-31T17:04:38.297Z,10.68
2017-05-31T17:07:05.450Z,10.68
2017-05-31T17:09:32.645Z,11.96
2017-05-31T17:11:59.805Z,11.46
2017-05-31T17:14:26.958Z,10.36
2017-05-31T17:16:54.264Z,11.28
2017-05-31T17:19:21.415Z,12.44
2017-05-31T17:21:48.564Z,10.44
2017-05-31T17:24:15.781Z,11.48
2017-05-31T17:26:42.928Z,9.72
2017-05-31T17:29:10.092Z,12.02
2017-05-31T17:31:37.244Z,12.28
2017-05-31T17:34:04.398Z,10.82
2017-05-31T17:36:31.574Z,12.14
2017-05-31T17:38:58.749Z,12.98
2017-05-31T17:41:25.896Z,12.36
2017-05-31T17:43:53.072Z,11.18
2017-05-31T17:46:20.223Z,12.00
2017-05-31T17:48:47.357Z,13.32
2017-05-31T17:51:14.558Z,11.66
2017-05-31T17:53:41.689Z,13.34
2017-05-31T17:56:08.833Z,13.66
2017-05-31T17:58:36.015Z,11.74
2017-05-31T18:01:03.161Z,13.34
2017-05-31T18:03:30.313Z,12.88
2017-05-31T18:05:57.579Z,13.38
2017-05-31T18:08:24.757Z,13.90
2017-05-31T18:10:51.897Z,13.80
2017-05-31T18:13:19.069Z,14.48
2017-05-31T18:15:46.261Z,13.90
2017-05-31T18:18:13.420Z,14.14
2017-05-31T18:20:40.560Z,13.80
2017-05-31T18:23:07.738Z,15.28
2017-05-31T18:25:34.876Z,15.76
2017-05-31T18:28:02.018Z,13.64
2017-05-31T18:30:29.197Z,10.78
2017-05-31T18:32:56.329Z,8.84
2017-05-31T18:35:23.473Z,9.26
2017-05-31T18:37:50.972Z,9.30
2017-05-31T18:40:18.127Z,8.88
2017-05-31T18:42:45.296Z,7.50
2017-05-31T18:45:12.480Z,8.02
2017-05-31T18:47:39.637Z,8.62
2017-05-31T18:50:06.788Z,8.76
2017-05-31T18:52:33.975Z,8.74
2017-05-31T18:55:01.116Z,9.50
2017-05-31T18:57:28.289Z,7.90
2017-05-31T18:59:55.513Z,8.96
2017-05-31T19:02:22.685Z,10.20
2017-05-31T19:04:49.870Z,10.06
2017-05-31T19:07:17.045Z,10.38
2017-05-31T19:09:44.193Z,10.56
2017-05-31T19:12:11.445Z,11.48
2017-05-31T19:14:38.658Z,10.88
2017-05-31T19:17:05.864Z,10.18
2017-05-31T19:19:33.129Z,11.32
2017-05-31T19:22:00.561Z,11.14
2017-05-31T19:24:27.806Z,11.28
2017-05-31T19:26:54.996Z,11.36
2017-05-31T19:29:22.125Z,10.36
2017-05-31T19:31:49.273Z,11.06
2017-05-31T19:34:16.441Z,10.22
2017-05-31T19:36:43.587Z,12.28
2017-05-31T19:39:10.725Z,10.64
2017-05-31T19:41:37.918Z,11.80
2017-05-31T19:44:05.045Z,10.56
2017-05-31T19:46:32.198Z,10.80
2017-05-31T19:48:59.404Z,10.08
2017-05-31T19:51:26.601Z,10.98
2017-05-31T19:53:53.797Z,10.72
2017-05-31T19:56:20.950Z,11.92
2017-05-31T19:58:48.157Z,11.46
2017-05-31T20:01:15.309Z,10.94
2017-05-31T20:03:42.441Z,10.74
2017-05-31T20:06:09.634Z,11.42
2017-05-31T20:08:36.772Z,11.80
2017-05-31T20:11:04.131Z,11.34
2017-05-31T20:13:31.299Z,11.52
2017-05-31T20:15:58.457Z,13.14
2017-05-31T20:18:25.605Z,11.36
2017-05-31T20:20:52.797Z,11.88
2017-05-31T20:23:19.978Z,10.80
2017-05-31T20:25:47.272Z,11.72
2017-05-31T20:28:14.425Z,13.08
2017-05-31T20:30:40.842Z,11.76
2017-05-31T20:33:08.035Z,12.68
2017-05-31T20:35:35.173Z,12.62
2017-05-31T20:38:02.299Z,13.06
2017-05-31T20:40:29.476Z,11.72
2017-05-31T20:42:56.653Z,12.76
2017-05-31T20:45:23.806Z,12.86
2017-05-31T20:47:51.092Z,12.34
2017-05-31T20:50:18.229Z,11.54
2017-05-31T20:52:45.372Z,12.24
2017-05-31T20:55:12.584Z,12.26
2017-05-31T20:57:39.737Z,14.36
2017-05-31T21:00:06.883Z,12.46
2017-05-31T21:02:34.060Z,11.80
2017-05-31T21:05:01.221Z,11.58
2017-05-31T21:07:28.370Z,11.66
2017-05-31T21:09:55.814Z,12.64
2017-05-31T21:12:22.941Z,12.92
2017-05-31T21:14:50.227Z,11.70
2017-05-31T21:17:17.400Z,12.36
2017-05-31T21:19:44.553Z,12.74
2017-05-31T21:22:11.736Z,12.52
2017-05-31T21:24:38.912Z,11.84
2017-05-31T21:27:06.094Z,12.56
2017-05-31T21:29:33.249Z,11.90
2017-05-31T21:32:00.501Z,13.22
2017-05-31T21:34:27.667Z,11.12
2017-05-31T21:36:54.812Z,13.78
2017-05-31T21:39:21.973Z,12.76
2017-05-31T21:41:49.140Z,12.72
2017-05-31T21:44:16.269Z,11.54
2017-05-31T21:46:43.424Z,11.82
2017-05-31T21:49:10.569Z,11.34
2017-05-31T21:51:37.701Z,11.30
2017-05-31T21:54:04.881Z,12.46
2017-05-31T21:56:32.029Z,11.62
2017-05-31T21:58:59.169Z,11.90
2017-05-31T22:01:26.337Z,11.20
2017-05-31T22:03:53.521Z,11.94
2017-05-31T22:06:20.645Z,11.72
2017-05-31T22:08:47.796Z,10.90
2017-05-31T22:11:15.001Z,11.38
2017-05-31T22:13:42.129Z,11.76
2017-05-31T22:16:09.255Z,12.46
2017-05-31T22:18:36.424Z,11.56
2017-05-31T22:21:03.608Z,11.68
2017-05-31T22:23:30.754Z,11.92
2017-05-31T22:25:57.886Z,12.44
2017-05-31T22:28:25.053Z,11.00
2017-05-31T22:30:52.210Z,11.70
2017-05-31T22:33:19.373Z,11.58
2017-05-31T22:35:46.549Z,12.40
2017-05-31T22:38:13.705Z,11.52
2017-05-31T22:40:40.828Z,12.72
2017-05-31T22:43:07.980Z,11.58
2017-05-31T22:45:35.153Z,10.60
2017-05-31T22:48:02.284Z,11.00
2017-05-31T22:50:29.425Z,12.40
2017-05-31T22:52:56.612Z,11.60
2017-05-31T22:55:23.753Z,12.30
2017-05-31T22:57:50.902Z,11.80
2017-05-31T23:00:18.068Z,12.68
2017-05-31T23:02:45.247Z,11.72
2017-05-31T23:05:11.633Z,13.32
2017-05-31T23:07:38.772Z,11.96
2017-05-31T23:10:05.941Z,11.72
2017-05-31T23:12:33.084Z,12.98
2017-05-31T23:15:00.533Z,11.22
2017-05-31T23:17:27.657Z,12.98
2017-05-31T23:19:54.809Z,12.22
2017-05-31T23:22:21.996Z,12.96
2017-05-31T23:24:49.143Z,12.34
2017-05-31T23:27:16.289Z,11.20
2017-05-31T23:29:43.541Z,13.32
2017-05-31T23:32:10.693Z,12.26
2017-05-31T23:34:37.821Z,12.60
2017-05-31T23:37:05.086Z,12.68
2017-05-31T23:39:32.245Z,13.28
2017-05-31T23:41:59.385Z,14.00
2017-05-31T23:44:26.644Z,12.66
2017-05-31T23:46:53.783Z,11.90
2017-05-31T23:49:20.912Z,12.82
2017-05-31T23:51:48.076Z,13.18
2017-05-31T23:54:15.253Z,12.58
2017-05-31T23:56:42.420Z,12.52
2017-05-31T23:59:09.556Z,12.54
